sensor_id;sensor_type;location;lat;lon;timestamp;P1;durP1;ratioP1;P2;durP2;ratioP2
13868;SDS011;7004;48.206;16.402;2023-02-07T00:01:21;48.30;;;24.53;;
13868;SDS011;7004;48.206;16.402;2023-02-07T00:03:49;46.90;;;24.07;;
13868;SDS011;7004;48.206;16.402;2023-02-07T00:06:17;46.80;;;24.10;;
13868;SDS011;7004;48.206;16.402;2023-02-07T00:08:59;47.53;;;23.93;;
13868;SDS011;7004;48.206;16.402;2023-02-07T00:11:27;47.30;;;25.40;;
13868;SDS011;7004;48.206;16.402;2023-02-07T00:13:55;46.20;;;24.83;;
13868;SDS011;7004;48.206;16.402;2023-02-07T00:16:23;44.90;;;23.30;;
13868;SDS011;7004;48.206;16.402;2023-02-07T00:18:51;45.10;;;25.07;;
13868;SDS011;7004;48.206;16.402;2023-02-07T00:21:19;48.47;;;23.07;;
13868;SDS011;7004;48.206;16.402;2023-02-07T00:23:47;45.87;;;23.80;;
13868;SDS011;7004;48.206;16.402;2023-02-07T00:26:15;52.23;;;25.53;;
13868;SDS011;7004;48.206;16.402;2023-02-07T00:28:43;44.07;;;24.30;;
13868;SDS011;7004;48.206;16.402;2023-02-07T00:31:14;52.50;;;25.63;;
13868;SDS011;7004;48.206;16.402;2023-02-07T00:33:54;46.93;;;23.93;;
13868;SDS011;7004;48.206;16.402;2023-02-07T00:36:23;48.00;;;24.40;;
13868;SDS011;7004;48.206;16.402;2023-02-07T00:38:54;52.23;;;26.13;;
13868;SDS011;7004;48.206;16.402;2023-02-07T00:41:27;47.03;;;25.03;;
13868;SDS011;7004;48.206;16.402;2023-02-07T00:43:54;49.30;;;26.27;;
13868;SDS011;7004;48.206;16.402;2023-02-07T00:46:21;49.50;;;26.50;;
13868;SDS011;7004;48.206;16.402;2023-02-07T00:48:47;52.00;;;26.23;;
13868;SDS011;7004;48.206;16.402;2023-02-07T00:51:13;53.93;;;26.83;;
13868;SDS011;7004;48.206;16.402;2023-02-07T00:53:39;54.60;;;26.23;;
13868;SDS011;7004;48.206;16.402;2023-02-07T00:56:07;51.30;;;26.27;;
13868;SDS011;7004;48.206;16.402;2023-02-07T00:58:33;46.17;;;24.77;;
13868;SDS011;7004;48.206;16.402;2023-02-07T01:00:59;52.10;;;27.00;;
13868;SDS011;7004;48.206;16.402;2023-02-07T01:03:25;52.60;;;27.03;;
13868;SDS011;7004;48.206;16.402;2023-02-07T01:05:52;54.10;;;27.03;;
13868;SDS011;7004;48.206;16.402;2023-02-07T01:08:18;57.80;;;27.17;;
13868;SDS011;7004;48.206;16.402;2023-02-07T01:10:44;53.93;;;27.43;;
13868;SDS011;7004;48.206;16.402;2023-02-07T01:13:11;53.77;;;26.63;;
13868;SDS011;7004;48.206;16.402;2023-02-07T01:15:39;53.67;;;27.53;;
13868;SDS011;7004;48.206;16.402;2023-02-07T01:18:07;55.50;;;27.33;;
13868;SDS011;7004;48.206;16.402;2023-02-07T01:20:34;58.67;;;28.03;;
13868;SDS011;7004;48.206;16.402;2023-02-07T01:23:01;55.20;;;26.83;;
13868;SDS011;7004;48.206;16.402;2023-02-07T01:25:28;58.47;;;27.43;;
13868;SDS011;7004;48.206;16.402;2023-02-07T01:27:54;52.10;;;26.07;;
13868;SDS011;7004;48.206;16.402;2023-02-07T01:30:22;51.70;;;27.00;;
13868;SDS011;7004;48.206;16.402;2023-02-07T01:32:48;50.03;;;26.23;;
13868;SDS011;7004;48.206;16.402;2023-02-07T01:35:14;50.20;;;26.90;;
13868;SDS011;7004;48.206;16.402;2023-02-07T01:37:40;57.57;;;27.87;;
13868;SDS011;7004;48.206;16.402;2023-02-07T01:40:07;54.27;;;27.47;;
13868;SDS011;7004;48.206;16.402;2023-02-07T01:42:35;52.87;;;27.63;;
13868;SDS011;7004;48.206;16.402;2023-02-07T01:45:03;56.70;;;26.90;;
13868;SDS011;7004;48.206;16.402;2023-02-07T01:47:54;53.77;;;25.57;;
13868;SDS011;7004;48.206;16.402;2023-02-07T01:50:26;58.17;;;26.63;;
13868;SDS011;7004;48.206;16.402;2023-02-07T01:52:52;52.20;;;26.23;;
13868;SDS011;7004;48.206;16.402;2023-02-07T01:55:23;57.23;;;27.13;;
13868;SDS011;7004;48.206;16.402;2023-02-07T01:57:53;53.77;;;26.37;;
13868;SDS011;7004;48.206;16.402;2023-02-07T02:00:19;48.33;;;26.37;;
13868;SDS011;7004;48.206;16.402;2023-02-07T02:02:46;56.90;;;27.40;;
13868;SDS011;7004;48.206;16.402;2023-02-07T02:05:13;49.03;;;26.37;;
13868;SDS011;7004;48.206;16.402;2023-02-07T02:07:40;53.13;;;26.63;;
13868;SDS011;7004;48.206;16.402;2023-02-07T02:19:26;51.10;;;26.07;;
13868;SDS011;7004;48.206;16.402;2023-02-07T02:22:27;55.00;;;27.00;;
13868;SDS011;7004;48.206;16.402;2023-02-07T02:33:20;52.37;;;27.30;;
13868;SDS011;7004;48.206;16.402;2023-02-07T02:36:22;54.63;;;27.07;;
13868;SDS011;7004;48.206;16.402;2023-02-07T02:44:51;58.33;;;28.40;;
13868;SDS011;7004;48.206;16.402;2023-02-07T02:47:53;58.50;;;26.90;;
13868;SDS011;7004;48.206;16.402;2023-02-07T02:50:31;58.77;;;28.37;;
13868;SDS011;7004;48.206;16.402;2023-02-07T02:52:59;58.23;;;27.20;;
13868;SDS011;7004;48.206;16.402;2023-02-07T02:55:46;58.63;;;27.47;;
13868;SDS011;7004;48.206;16.402;2023-02-07T02:59:22;53.10;;;27.50;;
13868;SDS011;7004;48.206;16.402;2023-02-07T03:10:59;52.23;;;26.33;;
13868;SDS011;7004;48.206;16.402;2023-02-07T03:16:42;53.53;;;26.93;;
13868;SDS011;7004;48.206;16.402;2023-02-07T03:19:45;56.73;;;28.40;;
13868;SDS011;7004;48.206;16.402;2023-02-07T03:22:34;62.27;;;28.37;;
13868;SDS011;7004;48.206;16.402;2023-02-07T03:25:03;53.50;;;27.40;;
13868;SDS011;7004;48.206;16.402;2023-02-07T03:27:32;59.47;;;28.10;;
13868;SDS011;7004;48.206;16.402;2023-02-07T03:30:03;60.50;;;28.73;;
13868;SDS011;7004;48.206;16.402;2023-02-07T03:32:38;52.00;;;26.10;;
13868;SDS011;7004;48.206;16.402;2023-02-07T03:35:12;56.20;;;27.77;;
13868;SDS011;7004;48.206;16.402;2023-02-07T03:38:05;57.27;;;27.13;;
13868;SDS011;7004;48.206;16.402;2023-02-07T03:40:37;56.53;;;28.27;;
13868;SDS011;7004;48.206;16.402;2023-02-07T03:43:26;58.17;;;28.57;;
13868;SDS011;7004;48.206;16.402;2023-02-07T03:45:57;59.03;;;27.97;;
13868;SDS011;7004;48.206;16.402;2023-02-07T03:48:24;53.87;;;27.30;;
13868;SDS011;7004;48.206;16.402;2023-02-07T03:50:50;60.63;;;28.73;;
13868;SDS011;7004;48.206;16.402;2023-02-07T03:53:20;58.73;;;28.10;;
13868;SDS011;7004;48.206;16.402;2023-02-07T03:55:46;60.73;;;28.33;;
13868;SDS011;7004;48.206;16.402;2023-02-07T03:58:12;59.57;;;27.53;;
13868;SDS011;7004;48.206;16.402;2023-02-07T04:00:38;55.43;;;27.53;;
13868;SDS011;7004;48.206;16.402;2023-02-07T04:03:05;60.50;;;28.57;;
13868;SDS011;7004;48.206;16.402;2023-02-07T04:05:31;62.93;;;28.93;;
13868;SDS011;7004;48.206;16.402;2023-02-07T04:07:57;53.17;;;26.53;;
13868;SDS011;7004;48.206;16.402;2023-02-07T04:10:23;56.17;;;27.73;;
13868;SDS011;7004;48.206;16.402;2023-02-07T04:12:49;59.73;;;28.33;;
13868;SDS011;7004;48.206;16.402;2023-02-07T04:15:15;55.70;;;27.17;;
13868;SDS011;7004;48.206;16.402;2023-02-07T04:17:42;53.50;;;27.23;;
13868;SDS011;7004;48.206;16.402;2023-02-07T04:20:08;61.53;;;29.33;;
13868;SDS011;7004;48.206;16.402;2023-02-07T04:22:35;60.97;;;29.07;;
13868;SDS011;7004;48.206;16.402;2023-02-07T04:25:01;52.97;;;28.60;;
13868;SDS011;7004;48.206;16.402;2023-02-07T04:27:27;61.03;;;28.20;;
13868;SDS011;7004;48.206;16.402;2023-02-07T04:29:54;54.53;;;27.93;;
13868;SDS011;7004;48.206;16.402;2023-02-07T04:32:20;57.70;;;27.53;;
13868;SDS011;7004;48.206;16.402;2023-02-07T04:34:47;57.47;;;27.93;;
13868;SDS011;7004;48.206;16.402;2023-02-07T04:37:13;56.60;;;27.17;;
13868;SDS011;7004;48.206;16.402;2023-02-07T04:39:39;59.70;;;28.53;;
13868;SDS011;7004;48.206;16.402;2023-02-07T04:42:05;57.07;;;26.57;;
13868;SDS011;7004;48.206;16.402;2023-02-07T04:44:32;57.13;;;27.83;;
13868;SDS011;7004;48.206;16.402;2023-02-07T04:46:59;57.57;;;28.07;;
13868;SDS011;7004;48.206;16.402;2023-02-07T04:49:25;54.53;;;27.13;;
13868;SDS011;7004;48.206;16.402;2023-02-07T04:51:51;56.30;;;28.63;;
13868;SDS011;7004;48.206;16.402;2023-02-07T04:54:17;62.43;;;27.90;;
13868;SDS011;7004;48.206;16.402;2023-02-07T04:56:43;56.90;;;28.20;;
13868;SDS011;7004;48.206;16.402;2023-02-07T04:59:09;59.57;;;27.57;;
13868;SDS011;7004;48.206;16.402;2023-02-07T05:01:35;55.93;;;27.07;;
13868;SDS011;7004;48.206;16.402;2023-02-07T05:04:01;58.87;;;28.37;;
13868;SDS011;7004;48.206;16.402;2023-02-07T05:06:28;52.97;;;26.93;;
13868;SDS011;7004;48.206;16.402;2023-02-07T05:08:55;53.63;;;26.90;;
13868;SDS011;7004;48.206;16.402;2023-02-07T05:11:21;54.33;;;27.00;;
13868;SDS011;7004;48.206;16.402;2023-02-07T05:13:47;56.30;;;26.87;;
13868;SDS011;7004;48.206;16.402;2023-02-07T05:16:14;55.43;;;26.97;;
13868;SDS011;7004;48.206;16.402;2023-02-07T05:18:40;49.47;;;25.53;;
13868;SDS011;7004;48.206;16.402;2023-02-07T05:21:06;53.07;;;25.60;;
13868;SDS011;7004;48.206;16.402;2023-02-07T05:23:32;59.30;;;26.17;;
13868;SDS011;7004;48.206;16.402;2023-02-07T05:25:59;55.40;;;25.20;;
13868;SDS011;7004;48.206;16.402;2023-02-07T05:28:25;48.53;;;24.83;;
13868;SDS011;7004;48.206;16.402;2023-02-07T05:30:52;54.90;;;25.57;;
13868;SDS011;7004;48.206;16.402;2023-02-07T05:33:21;47.43;;;25.43;;
13868;SDS011;7004;48.206;16.402;2023-02-07T05:35:47;60.67;;;27.53;;
13868;SDS011;7004;48.206;16.402;2023-02-07T05:38:14;55.20;;;26.67;;
13868;SDS011;7004;48.206;16.402;2023-02-07T05:40:43;53.50;;;25.70;;
13868;SDS011;7004;48.206;16.402;2023-02-07T05:43:10;53.30;;;26.77;;
13868;SDS011;7004;48.206;16.402;2023-02-07T05:45:37;56.07;;;26.43;;
13868;SDS011;7004;48.206;16.402;2023-02-07T05:48:04;47.10;;;25.27;;
13868;SDS011;7004;48.206;16.402;2023-02-07T05:50:31;52.87;;;25.83;;
13868;SDS011;7004;48.206;16.402;2023-02-07T05:52:57;53.50;;;24.47;;
13868;SDS011;7004;48.206;16.402;2023-02-07T05:55:23;50.80;;;25.33;;
13868;SDS011;7004;48.206;16.402;2023-02-07T05:57:49;48.90;;;24.87;;
13868;SDS011;7004;48.206;16.402;2023-02-07T06:00:17;51.60;;;26.53;;
13868;SDS011;7004;48.206;16.402;2023-02-07T06:02:45;53.67;;;25.47;;
13868;SDS011;7004;48.206;16.402;2023-02-07T06:05:12;55.67;;;25.27;;
13868;SDS011;7004;48.206;16.402;2023-02-07T06:07:40;52.93;;;24.80;;
13868;SDS011;7004;48.206;16.402;2023-02-07T06:10:08;49.30;;;25.03;;
13868;SDS011;7004;48.206;16.402;2023-02-07T06:12:35;46.27;;;23.37;;
13868;SDS011;7004;48.206;16.402;2023-02-07T06:15:01;50.43;;;24.43;;
13868;SDS011;7004;48.206;16.402;2023-02-07T06:17:28;54.00;;;25.50;;
13868;SDS011;7004;48.206;16.402;2023-02-07T06:19:54;50.03;;;25.17;;
13868;SDS011;7004;48.206;16.402;2023-02-07T06:22:20;48.73;;;24.20;;
13868;SDS011;7004;48.206;16.402;2023-02-07T06:24:46;54.37;;;25.37;;
13868;SDS011;7004;48.206;16.402;2023-02-07T06:27:12;53.43;;;25.97;;
13868;SDS011;7004;48.206;16.402;2023-02-07T06:29:38;50.87;;;24.33;;
13868;SDS011;7004;48.206;16.402;2023-02-07T06:32:04;52.30;;;25.13;;
13868;SDS011;7004;48.206;16.402;2023-02-07T06:34:31;50.60;;;24.87;;
13868;SDS011;7004;48.206;16.402;2023-02-07T06:36:57;54.43;;;26.60;;
13868;SDS011;7004;48.206;16.402;2023-02-07T06:39:23;52.83;;;24.67;;
13868;SDS011;7004;48.206;16.402;2023-02-07T06:41:49;53.83;;;26.30;;
13868;SDS011;7004;48.206;16.402;2023-02-07T06:44:15;55.20;;;25.10;;
13868;SDS011;7004;48.206;16.402;2023-02-07T06:46:41;51.07;;;24.93;;
13868;SDS011;7004;48.206;16.402;2023-02-07T06:49:08;55.37;;;24.37;;
13868;SDS011;7004;48.206;16.402;2023-02-07T06:51:35;51.97;;;24.80;;
13868;SDS011;7004;48.206;16.402;2023-02-07T06:54:01;52.50;;;25.20;;
13868;SDS011;7004;48.206;16.402;2023-02-07T06:56:32;47.80;;;23.87;;
13868;SDS011;7004;48.206;16.402;2023-02-07T06:58:58;46.83;;;24.20;;
13868;SDS011;7004;48.206;16.402;2023-02-07T07:01:24;53.00;;;24.37;;
13868;SDS011;7004;48.206;16.402;2023-02-07T07:03:50;48.50;;;25.13;;
13868;SDS011;7004;48.206;16.402;2023-02-07T07:06:17;53.53;;;24.17;;
13868;SDS011;7004;48.206;16.402;2023-02-07T07:08:43;52.40;;;23.50;;
13868;SDS011;7004;48.206;16.402;2023-02-07T07:11:09;48.67;;;25.07;;
13868;SDS011;7004;48.206;16.402;2023-02-07T07:13:35;54.97;;;24.23;;
13868;SDS011;7004;48.206;16.402;2023-02-07T07:16:01;46.97;;;24.67;;
13868;SDS011;7004;48.206;16.402;2023-02-07T07:18:28;48.37;;;23.83;;
13868;SDS011;7004;48.206;16.402;2023-02-07T07:20:54;48.90;;;24.23;;
13868;SDS011;7004;48.206;16.402;2023-02-07T07:23:22;47.73;;;24.23;;
13868;SDS011;7004;48.206;16.402;2023-02-07T07:25:48;43.87;;;23.40;;
13868;SDS011;7004;48.206;16.402;2023-02-07T07:28:14;46.47;;;24.33;;
13868;SDS011;7004;48.206;16.402;2023-02-07T07:30:40;50.47;;;24.77;;
13868;SDS011;7004;48.206;16.402;2023-02-07T07:33:06;51.07;;;24.07;;
13868;SDS011;7004;48.206;16.402;2023-02-07T07:35:32;45.47;;;23.73;;
13868;SDS011;7004;48.206;16.402;2023-02-07T07:37:58;47.57;;;23.43;;
13868;SDS011;7004;48.206;16.402;2023-02-07T07:40:24;53.27;;;24.00;;
13868;SDS011;7004;48.206;16.402;2023-02-07T07:42:50;49.27;;;24.03;;
13868;SDS011;7004;48.206;16.402;2023-02-07T07:45:17;51.57;;;24.67;;
13868;SDS011;7004;48.206;16.402;2023-02-07T07:47:44;43.43;;;22.47;;
13868;SDS011;7004;48.206;16.402;2023-02-07T07:50:10;49.60;;;23.07;;
13868;SDS011;7004;48.206;16.402;2023-02-07T07:52:38;48.53;;;23.57;;
13868;SDS011;7004;48.206;16.402;2023-02-07T07:55:04;52.30;;;23.33;;
13868;SDS011;7004;48.206;16.402;2023-02-07T07:57:31;43.90;;;22.53;;
13868;SDS011;7004;48.206;16.402;2023-02-07T07:59:57;52.00;;;23.53;;
13868;SDS011;7004;48.206;16.402;2023-02-07T08:02:23;44.60;;;21.77;;
13868;SDS011;7004;48.206;16.402;2023-02-07T08:04:49;42.03;;;22.43;;
13868;SDS011;7004;48.206;16.402;2023-02-07T08:07:16;48.93;;;22.63;;
13868;SDS011;7004;48.206;16.402;2023-02-07T08:09:42;40.67;;;21.87;;
13868;SDS011;7004;48.206;16.402;2023-02-07T08:12:08;43.17;;;21.07;;
13868;SDS011;7004;48.206;16.402;2023-02-07T08:14:35;42.50;;;22.63;;
13868;SDS011;7004;48.206;16.402;2023-02-07T08:17:01;44.40;;;22.33;;
13868;SDS011;7004;48.206;16.402;2023-02-07T08:19:27;41.00;;;21.90;;
13868;SDS011;7004;48.206;16.402;2023-02-07T08:21:55;40.00;;;20.97;;
13868;SDS011;7004;48.206;16.402;2023-02-07T08:24:21;43.90;;;21.97;;
13868;SDS011;7004;48.206;16.402;2023-02-07T08:26:49;40.43;;;22.17;;
13868;SDS011;7004;48.206;16.402;2023-02-07T08:29:15;44.50;;;22.60;;
13868;SDS011;7004;48.206;16.402;2023-02-07T08:31:41;41.23;;;20.17;;
13868;SDS011;7004;48.206;16.402;2023-02-07T08:34:07;39.90;;;21.30;;
13868;SDS011;7004;48.206;16.402;2023-02-07T08:36:33;40.67;;;21.93;;
13868;SDS011;7004;48.206;16.402;2023-02-07T08:38:59;42.87;;;21.70;;
13868;SDS011;7004;48.206;16.402;2023-02-07T08:41:25;43.80;;;22.70;;
13868;SDS011;7004;48.206;16.402;2023-02-07T08:43:51;42.83;;;21.93;;
13868;SDS011;7004;48.206;16.402;2023-02-07T08:46:18;40.40;;;22.93;;
13868;SDS011;7004;48.206;16.402;2023-02-07T08:48:44;40.47;;;21.07;;
13868;SDS011;7004;48.206;16.402;2023-02-07T08:51:10;36.40;;;20.10;;
13868;SDS011;7004;48.206;16.402;2023-02-07T08:53:36;41.73;;;20.33;;
13868;SDS011;7004;48.206;16.402;2023-02-07T08:56:03;37.63;;;19.67;;
13868;SDS011;7004;48.206;16.402;2023-02-07T08:58:30;44.43;;;20.70;;
13868;SDS011;7004;48.206;16.402;2023-02-07T09:00:56;39.23;;;20.53;;
13868;SDS011;7004;48.206;16.402;2023-02-07T09:03:22;38.00;;;20.57;;
13868;SDS011;7004;48.206;16.402;2023-02-07T09:05:49;45.83;;;21.87;;
13868;SDS011;7004;48.206;16.402;2023-02-07T09:08:15;37.63;;;20.67;;
13868;SDS011;7004;48.206;16.402;2023-02-07T09:10:42;44.60;;;21.63;;
13868;SDS011;7004;48.206;16.402;2023-02-07T09:13:08;43.63;;;21.53;;
13868;SDS011;7004;48.206;16.402;2023-02-07T09:15:35;38.23;;;19.17;;
13868;SDS011;7004;48.206;16.402;2023-02-07T09:18:01;40.33;;;19.37;;
13868;SDS011;7004;48.206;16.402;2023-02-07T09:20:27;38.63;;;20.37;;
13868;SDS011;7004;48.206;16.402;2023-02-07T09:22:53;40.73;;;21.33;;
13868;SDS011;7004;48.206;16.402;2023-02-07T09:25:46;38.80;;;19.53;;
13868;SDS011;7004;48.206;16.402;2023-02-07T09:28:17;39.63;;;20.13;;
13868;SDS011;7004;48.206;16.402;2023-02-07T09:30:46;34.60;;;18.53;;
13868;SDS011;7004;48.206;16.402;2023-02-07T09:33:13;40.73;;;20.87;;
13868;SDS011;7004;48.206;16.402;2023-02-07T09:35:44;37.53;;;19.40;;
13868;SDS011;7004;48.206;16.402;2023-02-07T09:38:13;36.37;;;19.20;;
13868;SDS011;7004;48.206;16.402;2023-02-07T09:40:43;38.87;;;20.17;;
13868;SDS011;7004;48.206;16.402;2023-02-07T09:46:29;44.43;;;20.73;;
13868;SDS011;7004;48.206;16.402;2023-02-07T09:49:38;38.80;;;19.33;;
13868;SDS011;7004;48.206;16.402;2023-02-07T09:52:17;37.20;;;18.57;;
13868;SDS011;7004;48.206;16.402;2023-02-07T09:55:04;37.53;;;18.73;;
13868;SDS011;7004;48.206;16.402;2023-02-07T09:57:46;35.13;;;17.27;;
13868;SDS011;7004;48.206;16.402;2023-02-07T10:00:25;39.17;;;18.97;;
13868;SDS011;7004;48.206;16.402;2023-02-07T10:02:57;34.20;;;18.10;;
13868;SDS011;7004;48.206;16.402;2023-02-07T10:05:53;37.30;;;19.20;;
13868;SDS011;7004;48.206;16.402;2023-02-07T10:08:26;31.67;;;18.67;;
13868;SDS011;7004;48.206;16.402;2023-02-07T10:11:03;34.17;;;19.40;;
13868;SDS011;7004;48.206;16.402;2023-02-07T10:20:31;34.93;;;19.03;;
13868;SDS011;7004;48.206;16.402;2023-02-07T10:23:11;33.07;;;20.67;;
13868;SDS011;7004;48.206;16.402;2023-02-07T10:32:11;34.57;;;19.97;;
13868;SDS011;7004;48.206;16.402;2023-02-07T10:34:56;40.83;;;20.00;;
13868;SDS011;7004;48.206;16.402;2023-02-07T10:37:34;34.63;;;19.53;;
13868;SDS011;7004;48.206;16.402;2023-02-07T10:40:04;38.50;;;18.87;;
13868;SDS011;7004;48.206;16.402;2023-02-07T10:42:39;35.93;;;19.40;;
13868;SDS011;7004;48.206;16.402;2023-02-07T10:45:13;34.50;;;18.97;;
13868;SDS011;7004;48.206;16.402;2023-02-07T10:47:40;32.67;;;17.53;;
13868;SDS011;7004;48.206;16.402;2023-02-07T10:50:16;33.70;;;19.27;;
13868;SDS011;7004;48.206;16.402;2023-02-07T10:52:50;30.87;;;17.80;;
13868;SDS011;7004;48.206;16.402;2023-02-07T10:55:32;29.27;;;18.10;;
13868;SDS011;7004;48.206;16.402;2023-02-07T10:58:05;34.73;;;17.87;;
13868;SDS011;7004;48.206;16.402;2023-02-07T11:00:41;28.97;;;17.80;;
13868;SDS011;7004;48.206;16.402;2023-02-07T11:03:17;30.90;;;18.67;;
13868;SDS011;7004;48.206;16.402;2023-02-07T11:08:25;32.70;;;18.13;;
13868;SDS011;7004;48.206;16.402;2023-02-07T11:10:55;36.13;;;19.77;;
13868;SDS011;7004;48.206;16.402;2023-02-07T11:13:25;34.50;;;19.53;;
13868;SDS011;7004;48.206;16.402;2023-02-07T11:16:00;30.70;;;18.40;;
13868;SDS011;7004;48.206;16.402;2023-02-07T11:18:38;31.63;;;18.40;;
13868;SDS011;7004;48.206;16.402;2023-02-07T11:24:02;29.60;;;17.10;;
13868;SDS011;7004;48.206;16.402;2023-02-07T11:26:52;32.03;;;17.67;;
13868;SDS011;7004;48.206;16.402;2023-02-07T11:29:56;32.10;;;17.47;;
13868;SDS011;7004;48.206;16.402;2023-02-07T11:32:28;33.07;;;19.50;;
13868;SDS011;7004;48.206;16.402;2023-02-07T11:35:05;30.73;;;18.30;;
13868;SDS011;7004;48.206;16.402;2023-02-07T11:37:34;30.13;;;18.07;;
13868;SDS011;7004;48.206;16.402;2023-02-07T11:42:55;30.93;;;17.57;;
13868;SDS011;7004;48.206;16.402;2023-02-07T11:45:37;30.53;;;16.80;;
13868;SDS011;7004;48.206;16.402;2023-02-07T11:48:06;28.40;;;17.93;;
13868;SDS011;7004;48.206;16.402;2023-02-07T11:50:46;28.70;;;17.37;;
13868;SDS011;7004;48.206;16.402;2023-02-07T11:53:25;34.53;;;18.33;;
13868;SDS011;7004;48.206;16.402;2023-02-07T11:56:19;31.17;;;17.57;;
13868;SDS011;7004;48.206;16.402;2023-02-07T11:58:51;31.00;;;17.93;;
13868;SDS011;7004;48.206;16.402;2023-02-07T12:01:21;30.07;;;17.43;;
13868;SDS011;7004;48.206;16.402;2023-02-07T12:04:18;29.10;;;17.27;;
13868;SDS011;7004;48.206;16.402;2023-02-07T12:06:58;27.73;;;16.27;;
13868;SDS011;7004;48.206;16.402;2023-02-07T12:12:32;31.80;;;17.97;;
13868;SDS011;7004;48.206;16.402;2023-02-07T12:15:11;29.63;;;17.33;;
13868;SDS011;7004;48.206;16.402;2023-02-07T12:20:36;33.97;;;16.87;;
13868;SDS011;7004;48.206;16.402;2023-02-07T12:23:10;32.93;;;17.20;;
13868;SDS011;7004;48.206;16.402;2023-02-07T12:26:05;30.13;;;17.03;;
13868;SDS011;7004;48.206;16.402;2023-02-07T12:28:58;33.53;;;16.87;;
13868;SDS011;7004;48.206;16.402;2023-02-07T12:34:59;30.27;;;17.17;;
13868;SDS011;7004;48.206;16.402;2023-02-07T12:40:38;29.17;;;16.40;;
13868;SDS011;7004;48.206;16.402;2023-02-07T12:43:23;32.30;;;16.97;;
13868;SDS011;7004;48.206;16.402;2023-02-07T12:51:36;28.43;;;16.30;;
13868;SDS011;7004;48.206;16.402;2023-02-07T13:05:29;28.33;;;15.97;;
13868;SDS011;7004;48.206;16.402;2023-02-07T13:11:11;31.27;;;15.73;;
13868;SDS011;7004;48.206;16.402;2023-02-07T13:19:51;29.97;;;17.93;;
13868;SDS011;7004;48.206;16.402;2023-02-07T13:22:35;32.00;;;17.73;;
13868;SDS011;7004;48.206;16.402;2023-02-07T13:25:19;30.10;;;16.20;;
13868;SDS011;7004;48.206;16.402;2023-02-07T13:27:53;33.57;;;17.93;;
13868;SDS011;7004;48.206;16.402;2023-02-07T13:30:23;29.97;;;17.60;;
13868;SDS011;7004;48.206;16.402;2023-02-07T13:32:52;35.07;;;17.37;;
13868;SDS011;7004;48.206;16.402;2023-02-07T13:35:25;35.40;;;17.43;;
13868;SDS011;7004;48.206;16.402;2023-02-07T13:38:01;30.17;;;16.77;;
13868;SDS011;7004;48.206;16.402;2023-02-07T13:41:08;32.67;;;17.47;;
13868;SDS011;7004;48.206;16.402;2023-02-07T13:49:41;38.23;;;18.10;;
13868;SDS011;7004;48.206;16.402;2023-02-07T13:52:54;29.20;;;16.00;;
13868;SDS011;7004;48.206;16.402;2023-02-07T13:55:44;30.90;;;17.57;;
13868;SDS011;7004;48.206;16.402;2023-02-07T14:01:16;32.27;;;16.40;;
13868;SDS011;7004;48.206;16.402;2023-02-07T14:03:59;26.73;;;16.47;;
13868;SDS011;7004;48.206;16.402;2023-02-07T14:06:37;30.53;;;16.17;;
13868;SDS011;7004;48.206;16.402;2023-02-07T14:09:46;27.47;;;15.63;;
13868;SDS011;7004;48.206;16.402;2023-02-07T14:14:39;30.83;;;16.03;;
13868;SDS011;7004;48.206;16.402;2023-02-07T14:17:06;32.87;;;16.30;;
13868;SDS011;7004;48.206;16.402;2023-02-07T14:19:54;28.97;;;16.20;;
13868;SDS011;7004;48.206;16.402;2023-02-07T14:27:39;32.13;;;17.50;;
13868;SDS011;7004;48.206;16.402;2023-02-07T14:30:17;30.10;;;17.63;;
13868;SDS011;7004;48.206;16.402;2023-02-07T14:38:41;30.03;;;15.83;;
13868;SDS011;7004;48.206;16.402;2023-02-07T14:41:31;30.53;;;17.13;;
13868;SDS011;7004;48.206;16.402;2023-02-07T14:44:02;28.27;;;16.10;;
13868;SDS011;7004;48.206;16.402;2023-02-07T14:46:37;28.27;;;15.80;;
13868;SDS011;7004;48.206;16.402;2023-02-07T14:54:39;30.03;;;15.43;;
13868;SDS011;7004;48.206;16.402;2023-02-07T15:02:40;27.00;;;15.03;;
13868;SDS011;7004;48.206;16.402;2023-02-07T15:05:29;27.47;;;15.17;;
13868;SDS011;7004;48.206;16.402;2023-02-07T15:10:29;22.43;;;14.10;;
13868;SDS011;7004;48.206;16.402;2023-02-07T15:13:02;28.53;;;14.73;;
13868;SDS011;7004;48.206;16.402;2023-02-07T15:15:48;25.73;;;14.93;;
13868;SDS011;7004;48.206;16.402;2023-02-07T15:18:18;23.63;;;14.63;;
13868;SDS011;7004;48.206;16.402;2023-02-07T15:20:48;26.70;;;14.87;;
13868;SDS011;7004;48.206;16.402;2023-02-07T15:23:18;27.30;;;15.40;;
13868;SDS011;7004;48.206;16.402;2023-02-07T15:25:45;26.00;;;15.63;;
13868;SDS011;7004;48.206;16.402;2023-02-07T15:28:23;26.07;;;14.43;;
13868;SDS011;7004;48.206;16.402;2023-02-07T15:33:33;30.97;;;15.43;;
13868;SDS011;7004;48.206;16.402;2023-02-07T15:36:22;28.47;;;15.10;;
13868;SDS011;7004;48.206;16.402;2023-02-07T15:38:55;28.27;;;15.20;;
13868;SDS011;7004;48.206;16.402;2023-02-07T15:41:24;28.53;;;15.73;;
13868;SDS011;7004;48.206;16.402;2023-02-07T15:43:56;24.17;;;15.03;;
13868;SDS011;7004;48.206;16.402;2023-02-07T15:46:23;27.67;;;15.97;;
13868;SDS011;7004;48.206;16.402;2023-02-07T15:48:51;27.90;;;15.43;;
13868;SDS011;7004;48.206;16.402;2023-02-07T15:51:26;27.57;;;15.33;;
13868;SDS011;7004;48.206;16.402;2023-02-07T15:53:58;27.93;;;16.50;;
13868;SDS011;7004;48.206;16.402;2023-02-07T15:56:26;29.90;;;14.60;;
13868;SDS011;7004;48.206;16.402;2023-02-07T15:58:58;28.30;;;15.37;;
13868;SDS011;7004;48.206;16.402;2023-02-07T16:01:33;34.13;;;16.70;;
13868;SDS011;7004;48.206;16.402;2023-02-07T16:04:01;32.20;;;16.63;;
13868;SDS011;7004;48.206;16.402;2023-02-07T16:06:28;29.23;;;15.63;;
13868;SDS011;7004;48.206;16.402;2023-02-07T16:08:57;30.60;;;17.27;;
13868;SDS011;7004;48.206;16.402;2023-02-07T16:16:24;28.83;;;16.47;;
13868;SDS011;7004;48.206;16.402;2023-02-07T16:22:07;27.80;;;16.10;;
13868;SDS011;7004;48.206;16.402;2023-02-07T16:24:39;31.90;;;16.60;;
13868;SDS011;7004;48.206;16.402;2023-02-07T16:27:16;30.47;;;16.83;;
13868;SDS011;7004;48.206;16.402;2023-02-07T16:29:55;33.70;;;17.87;;
13868;SDS011;7004;48.206;16.402;2023-02-07T16:32:32;29.13;;;16.10;;
13868;SDS011;7004;48.206;16.402;2023-02-07T16:34:59;36.20;;;18.40;;
13868;SDS011;7004;48.206;16.402;2023-02-07T16:37:25;36.13;;;17.97;;
13868;SDS011;7004;48.206;16.402;2023-02-07T16:39:52;32.27;;;17.97;;
13868;SDS011;7004;48.206;16.402;2023-02-07T16:42:19;32.20;;;17.67;;
13868;SDS011;7004;48.206;16.402;2023-02-07T16:44:45;33.57;;;17.60;;
13868;SDS011;7004;48.206;16.402;2023-02-07T16:47:12;32.03;;;17.30;;
13868;SDS011;7004;48.206;16.402;2023-02-07T16:49:43;33.93;;;19.07;;
13868;SDS011;7004;48.206;16.402;2023-02-07T16:52:11;34.70;;;18.83;;
13868;SDS011;7004;48.206;16.402;2023-02-07T16:54:37;33.63;;;17.97;;
13868;SDS011;7004;48.206;16.402;2023-02-07T16:57:04;34.13;;;18.63;;
13868;SDS011;7004;48.206;16.402;2023-02-07T16:59:31;29.03;;;16.83;;
13868;SDS011;7004;48.206;16.402;2023-02-07T17:01:57;34.03;;;17.13;;
13868;SDS011;7004;48.206;16.402;2023-02-07T17:04:23;31.63;;;17.47;;
13868;SDS011;7004;48.206;16.402;2023-02-07T17:06:49;36.10;;;17.07;;
13868;SDS011;7004;48.206;16.402;2023-02-07T17:11:48;30.40;;;17.37;;
13868;SDS011;7004;48.206;16.402;2023-02-07T17:14:16;28.97;;;16.90;;